createdAt,value
2019-05-26T00:00:49.863Z,18.50
2019-05-26T00:03:18.452Z,18.50
2019-05-26T00:05:46.971Z,18.49
2019-05-26T00:08:15.406Z,18.43
2019-05-26T00:10:43.917Z,18.42
2019-05-26T00:13:12.496Z,18.36
2019-05-26T00:15:40.908Z,18.30
2019-05-26T00:18:09.544Z,18.29
2019-05-26T00:20:38.040Z,18.29
2019-05-26T00:23:06.487Z,18.26
2019-05-26T00:25:34.893Z,18.28
2019-05-26T00:28:03.462Z,18.23
2019-05-26T00:30:32.986Z,18.17
2019-05-26T00:33:01.489Z,18.15
2019-05-26T00:35:29.896Z,18.06
2019-05-26T00:37:58.316Z,18.04
2019-05-26T00:40:27.031Z,18.03
2019-05-26T00:42:55.453Z,18.00
2019-05-26T00:45:24.026Z,17.93
2019-05-26T00:47:52.647Z,17.88
2019-05-26T00:50:21.193Z,17.84
2019-05-26T00:52:49.717Z,17.84
2019-05-26T00:55:18.475Z,17.80
2019-05-26T00:57:50.255Z,17.74
2019-05-26T01:00:38.470Z,17.60
2019-05-26T01:03:07.078Z,17.64
2019-05-26T01:05:35.568Z,17.63
2019-05-26T01:08:06.768Z,17.61
2019-05-26T01:10:36.095Z,17.57
2019-05-26T01:13:05.903Z,17.55
2019-05-26T01:15:34.402Z,17.55
2019-05-26T01:18:02.999Z,17.54
2019-05-26T01:20:31.760Z,17.48
2019-05-26T01:23:00.175Z,17.48
2019-05-26T01:25:28.766Z,17.43
2019-05-26T01:27:57.230Z,17.40
2019-05-26T01:30:34.493Z,17.38
2019-05-26T01:33:02.934Z,17.36
2019-05-26T01:35:31.801Z,17.37
2019-05-26T01:38:00.667Z,17.31
2019-05-26T01:40:39.983Z,17.25
2019-05-26T01:43:09.011Z,17.25
2019-05-26T01:45:37.462Z,17.22
2019-05-26T01:48:07.255Z,17.19
2019-05-26T01:50:36.280Z,17.20
2019-05-26T01:53:05.226Z,17.17
2019-05-26T01:55:33.757Z,17.13
2019-05-26T01:58:02.193Z,17.06
2019-05-26T02:00:30.615Z,17.15
2019-05-26T02:02:59.472Z,17.12
2019-05-26T02:05:27.922Z,17.10
2019-05-26T02:07:56.397Z,17.11
2019-05-26T02:10:24.914Z,17.04
2019-05-26T02:12:53.435Z,17.06
2019-05-26T02:15:23.182Z,17.05
2019-05-26T02:17:51.610Z,16.98
2019-05-26T02:20:20.466Z,16.95
2019-05-26T02:22:48.939Z,16.96
2019-05-26T02:25:19.252Z,16.97
2019-05-26T02:27:47.649Z,16.93
2019-05-26T02:30:17.705Z,16.91
2019-05-26T02:32:46.311Z,16.72
2019-05-26T02:35:15.269Z,16.43
2019-05-26T02:37:43.880Z,16.64
2019-05-26T02:40:14.236Z,16.67
2019-05-26T02:42:42.671Z,16.71
2019-05-26T02:45:14.161Z,16.69
2019-05-26T02:47:42.953Z,16.72
2019-05-26T02:50:12.115Z,16.72
2019-05-26T02:52:40.553Z,16.66
2019-05-26T02:55:09.941Z,16.67
2019-05-26T03:00:09.096Z,16.62
2019-05-26T03:02:37.588Z,16.59
2019-05-26T03:05:11.686Z,16.36
2019-05-26T03:07:45.406Z,16.05
2019-05-26T03:10:14.703Z,16.04
2019-05-26T03:12:43.879Z,16.08
2019-05-26T03:15:13.870Z,16.00
2019-05-26T03:17:42.802Z,15.83
2019-05-26T03:20:13.779Z,15.79
2019-05-26T03:22:42.893Z,15.89
2019-05-26T03:25:12.724Z,15.73
2019-05-26T03:27:41.403Z,15.74
2019-05-26T03:30:10.394Z,15.91
2019-05-26T03:32:39.138Z,15.84
2019-05-26T03:35:09.195Z,15.77
2019-05-26T03:37:37.720Z,15.55
2019-05-26T03:40:10.047Z,15.35
2019-05-26T03:42:38.613Z,15.56
2019-05-26T03:45:08.987Z,15.39
2019-05-26T03:47:37.538Z,15.54
2019-05-26T03:50:08.629Z,15.54
2019-05-26T03:52:37.080Z,15.29
2019-05-26T03:55:07.228Z,15.38
2019-05-26T03:57:35.671Z,15.41
2019-05-26T04:00:06.876Z,15.03
2019-05-26T04:02:35.299Z,15.31
2019-05-26T04:05:05.371Z,15.19
2019-05-26T04:07:33.838Z,15.11
2019-05-26T04:10:05.906Z,15.15
2019-05-26T04:12:33.366Z,15.13
2019-05-26T04:15:01.930Z,15.14
2019-05-26T04:17:30.596Z,15.26
2019-05-26T04:19:59.023Z,15.27
2019-05-26T04:22:27.470Z,15.16
2019-05-26T04:24:55.885Z,15.15
2019-05-26T04:27:24.321Z,15.29
2019-05-26T04:29:52.742Z,15.25
2019-05-26T04:32:21.300Z,15.30
2019-05-26T04:34:49.737Z,15.47
2019-05-26T04:37:18.253Z,15.60
2019-05-26T04:39:46.701Z,15.69
2019-05-26T04:42:15.223Z,15.75
2019-05-26T04:44:43.729Z,15.76
2019-05-26T04:47:12.276Z,15.74
2019-05-26T04:49:40.735Z,15.86
2019-05-26T04:52:09.356Z,15.96
2019-05-26T04:54:37.825Z,15.83
2019-05-26T04:57:06.283Z,15.89
2019-05-26T04:59:34.704Z,15.89
2019-05-26T05:02:03.115Z,15.70
2019-05-26T05:04:31.553Z,15.78
2019-05-26T05:06:59.962Z,15.75
2019-05-26T05:09:28.509Z,15.88
2019-05-26T05:11:56.960Z,15.89
2019-05-26T05:14:25.545Z,15.91
2019-05-26T05:16:53.974Z,15.97
2019-05-26T05:19:22.523Z,16.01
2019-05-26T05:21:50.983Z,16.05
2019-05-26T05:24:19.494Z,16.03
2019-05-26T05:26:47.955Z,16.08
2019-05-26T05:29:16.505Z,16.14
2019-05-26T05:31:44.948Z,16.11
2019-05-26T05:34:13.405Z,16.16
2019-05-26T05:36:41.813Z,16.22
2019-05-26T05:39:10.217Z,16.24
2019-05-26T05:41:38.769Z,16.24
2019-05-26T05:44:07.175Z,16.21
2019-05-26T05:46:35.753Z,16.24
2019-05-26T05:49:04.247Z,16.27
2019-05-26T05:51:32.764Z,16.31
2019-05-26T05:54:01.210Z,16.37
2019-05-26T05:56:29.747Z,16.40
2019-05-26T05:58:58.231Z,16.46
2019-05-26T06:01:26.577Z,16.50
2019-05-26T06:03:55.011Z,16.52
2019-05-26T06:06:23.441Z,16.57
2019-05-26T06:08:52.065Z,16.62
2019-05-26T06:11:20.514Z,16.66
2019-05-26T06:13:48.954Z,16.70
2019-05-26T06:16:17.378Z,16.70
2019-05-26T06:18:45.967Z,16.76
2019-05-26T06:21:14.401Z,16.77
2019-05-26T06:23:43.047Z,16.83
2019-05-26T06:26:11.489Z,16.90
2019-05-26T06:28:40.336Z,16.91
2019-05-26T06:31:08.767Z,16.97
2019-05-26T06:33:37.255Z,16.95
2019-05-26T06:36:05.787Z,17.04
2019-05-26T06:38:34.212Z,17.09
2019-05-26T06:41:02.809Z,17.13
2019-05-26T06:43:31.243Z,17.15
2019-05-26T06:45:59.651Z,17.21
2019-05-26T06:48:28.079Z,17.24
2019-05-26T06:50:56.506Z,17.26
2019-05-26T06:53:25.206Z,17.28
2019-05-26T06:55:53.662Z,17.33
2019-05-26T06:58:22.105Z,17.33
2019-05-26T07:00:50.501Z,17.38
2019-05-26T07:03:19.018Z,17.46
2019-05-26T07:05:47.495Z,17.51
2019-05-26T07:08:17.765Z,17.47
2019-05-26T07:10:46.218Z,17.55
2019-05-26T07:13:14.643Z,17.58
2019-05-26T07:15:43.197Z,17.60
2019-05-26T07:18:11.718Z,17.63
2019-05-26T07:20:40.137Z,17.67
2019-05-26T07:23:09.321Z,17.68
2019-05-26T07:25:38.686Z,17.80
2019-05-26T07:28:07.251Z,17.81
2019-05-26T07:30:35.755Z,17.78
2019-05-26T07:33:04.472Z,17.75
2019-05-26T07:35:33.308Z,17.81
2019-05-26T07:38:02.093Z,17.87
2019-05-26T07:40:30.529Z,17.92
2019-05-26T07:42:59.075Z,17.95
2019-05-26T07:45:27.493Z,18.00
2019-05-26T07:47:56.091Z,18.04
2019-05-26T07:50:25.172Z,18.10
2019-05-26T07:52:53.692Z,18.20
2019-05-26T07:55:22.120Z,18.30
2019-05-26T07:57:50.749Z,18.33
2019-05-26T08:00:19.829Z,18.38
2019-05-26T08:02:48.361Z,18.42
2019-05-26T08:05:17.148Z,18.50
2019-05-26T08:07:45.667Z,18.53
2019-05-26T08:10:15.865Z,18.60
2019-05-26T08:12:44.288Z,18.66
2019-05-26T08:15:13.298Z,18.64
2019-05-26T08:17:41.702Z,18.72
2019-05-26T08:20:11.337Z,18.70
2019-05-26T08:22:40.018Z,18.77
2019-05-26T08:25:09.036Z,18.78
2019-05-26T08:27:37.603Z,18.83
2019-05-26T08:30:07.503Z,18.86
2019-05-26T08:32:37.453Z,18.89
2019-05-26T08:35:08.304Z,18.98
2019-05-26T08:37:38.681Z,18.97
2019-05-26T08:40:21.704Z,19.00
2019-05-26T08:42:52.006Z,19.12
2019-05-26T08:45:23.745Z,19.23
2019-05-26T08:47:52.539Z,19.34
2019-05-26T08:50:21.592Z,19.29
2019-05-26T08:52:50.395Z,19.33
2019-05-26T08:55:18.968Z,19.37
2019-05-26T08:57:47.528Z,19.52
2019-05-26T09:00:16.804Z,19.58
2019-05-26T09:02:45.466Z,19.63
2019-05-26T09:05:15.622Z,19.67
2019-05-26T09:07:44.254Z,19.76
2019-05-26T09:10:13.800Z,19.79
2019-05-26T09:12:42.445Z,19.83
2019-05-26T09:15:11.281Z,19.87
2019-05-26T09:17:39.663Z,19.97
2019-05-26T09:20:11.319Z,19.96
2019-05-26T09:22:39.642Z,19.98
2019-05-26T09:25:08.285Z,20.03
2019-05-26T09:27:36.714Z,20.09
2019-05-26T09:30:10.743Z,20.12
2019-05-26T09:32:39.196Z,20.16
2019-05-26T09:35:08.350Z,20.21
2019-05-26T09:37:36.815Z,20.23
2019-05-26T09:40:08.172Z,20.30
2019-05-26T09:42:36.606Z,20.34
2019-05-26T09:45:07.862Z,20.42
2019-05-26T09:47:36.426Z,20.45
2019-05-26T09:50:07.044Z,20.49
2019-05-26T09:52:35.537Z,20.50
2019-05-26T09:55:05.918Z,20.49
2019-05-26T09:57:34.639Z,20.52
2019-05-26T10:00:04.957Z,20.60
2019-05-26T10:02:33.426Z,20.59
2019-05-26T10:05:01.919Z,20.52
2019-05-26T10:07:30.406Z,20.65
2019-05-26T10:09:58.807Z,20.65
2019-05-26T10:12:27.453Z,20.53
2019-05-26T10:14:55.890Z,20.52
2019-05-26T10:17:24.415Z,20.49
2019-05-26T10:19:52.938Z,20.47
2019-05-26T10:22:21.470Z,20.44
2019-05-26T10:24:50.276Z,20.65
2019-05-26T10:27:18.779Z,20.85
2019-05-26T10:29:47.236Z,20.80
2019-05-26T10:32:15.701Z,20.80
2019-05-26T10:34:44.265Z,20.85
2019-05-26T10:37:12.700Z,20.90
2019-05-26T10:39:49.926Z,21.02
2019-05-26T10:42:18.356Z,21.00
2019-05-26T10:44:46.844Z,21.02
2019-05-26T10:47:15.241Z,21.07
2019-05-26T10:49:43.771Z,21.16
2019-05-26T10:52:12.275Z,21.21
2019-05-26T10:54:40.677Z,21.24
2019-05-26T10:57:09.315Z,21.27
2019-05-26T10:59:38.137Z,21.43
2019-05-26T11:02:06.840Z,21.27
2019-05-26T11:04:35.309Z,21.26
2019-05-26T11:07:03.979Z,21.31
2019-05-26T11:09:32.440Z,21.31
2019-05-26T11:12:00.897Z,21.27
2019-05-26T11:14:29.316Z,21.32
2019-05-26T11:16:57.935Z,21.23
2019-05-26T11:19:26.376Z,21.29
2019-05-26T11:21:54.990Z,21.46
2019-05-26T11:24:23.421Z,21.44
2019-05-26T11:26:51.942Z,21.53
2019-05-26T11:29:20.722Z,21.60
2019-05-26T11:31:49.154Z,21.59
2019-05-26T11:34:17.756Z,21.74
2019-05-26T11:36:46.216Z,21.83
2019-05-26T11:39:14.742Z,21.76
2019-05-26T11:41:43.157Z,21.74
2019-05-26T11:44:17.859Z,21.87
2019-05-26T11:46:42.026Z,21.81
2019-05-26T11:49:10.610Z,21.86
2019-05-26T11:51:39.091Z,21.83
2019-05-26T11:54:07.490Z,21.81
2019-05-26T11:56:36.096Z,21.81
2019-05-26T11:59:04.898Z,21.85
2019-05-26T12:01:33.325Z,21.94
2019-05-26T12:04:05.509Z,21.95
2019-05-26T12:06:34.029Z,21.91
2019-05-26T12:09:03.307Z,21.99
2019-05-26T12:11:31.827Z,21.84
2019-05-26T12:14:00.419Z,21.76
2019-05-26T12:16:29.092Z,21.62
2019-05-26T12:18:57.542Z,21.59
2019-05-26T12:21:26.179Z,21.63
2019-05-26T12:23:55.208Z,21.60
2019-05-26T12:26:23.880Z,21.59
2019-05-26T12:28:52.348Z,21.67
2019-05-26T12:31:20.766Z,21.61
2019-05-26T12:33:49.184Z,21.77
2019-05-26T12:36:17.584Z,21.81
2019-05-26T12:38:51.600Z,21.86
2019-05-26T12:41:21.353Z,21.71
2019-05-26T12:43:49.816Z,21.56
2019-05-26T12:46:18.358Z,21.62
2019-05-26T12:48:46.998Z,21.67
2019-05-26T12:51:15.667Z,21.73
2019-05-26T12:53:44.397Z,21.73
2019-05-26T12:56:12.804Z,21.76
2019-05-26T12:58:41.397Z,21.87
2019-05-26T13:01:09.965Z,21.86
2019-05-26T13:03:59.197Z,21.95
2019-05-26T13:06:27.622Z,22.05
2019-05-26T13:08:56.140Z,22.17
2019-05-26T13:11:24.647Z,22.21
2019-05-26T13:13:53.239Z,22.25
2019-05-26T13:16:21.692Z,22.30
2019-05-26T13:18:50.152Z,22.46
2019-05-26T13:21:18.645Z,22.44
2019-05-26T13:23:47.158Z,22.39
2019-05-26T13:26:15.615Z,22.49
2019-05-26T13:28:44.229Z,22.46
2019-05-26T13:31:12.640Z,22.53
2019-05-26T13:33:41.163Z,22.54
2019-05-26T13:36:09.658Z,22.53
2019-05-26T13:38:38.308Z,22.55
2019-05-26T13:41:06.723Z,22.63
2019-05-26T13:43:35.184Z,22.63
2019-05-26T13:46:03.697Z,22.75
2019-05-26T13:48:32.562Z,22.81
2019-05-26T13:51:01.080Z,22.76
2019-05-26T13:53:29.516Z,22.75
2019-05-26T13:55:58.116Z,22.74
2019-05-26T13:58:26.544Z,22.71
2019-05-26T14:00:55.085Z,22.60
2019-05-26T14:03:24.406Z,22.43
2019-05-26T14:05:52.880Z,22.34
2019-05-26T14:08:21.351Z,22.25
2019-05-26T14:10:49.837Z,22.25
2019-05-26T14:13:18.314Z,22.34
2019-05-26T14:15:48.480Z,22.28
2019-05-26T14:18:18.196Z,22.31
2019-05-26T14:20:46.793Z,22.26
2019-05-26T14:23:15.192Z,22.30
2019-05-26T14:25:43.783Z,22.16
2019-05-26T14:28:12.392Z,22.19
2019-05-26T14:30:40.801Z,22.11
2019-05-26T14:33:09.244Z,22.10
2019-05-26T14:35:38.078Z,22.23
2019-05-26T14:38:06.571Z,22.16
2019-05-26T14:40:35.045Z,22.04
2019-05-26T14:43:03.670Z,22.04
2019-05-26T14:45:32.077Z,22.04
2019-05-26T14:48:00.650Z,22.04
2019-05-26T14:50:29.119Z,22.13
2019-05-26T14:52:57.628Z,22.05
2019-05-26T14:55:26.233Z,22.07
2019-05-26T14:57:54.610Z,22.08
2019-05-26T15:00:24.867Z,22.09
2019-05-26T15:02:53.460Z,21.98
2019-05-26T15:05:21.862Z,22.01
2019-05-26T15:07:50.449Z,21.95
2019-05-26T15:10:22.514Z,21.86
2019-05-26T15:12:49.912Z,21.86
2019-05-26T15:15:18.649Z,21.87
2019-05-26T15:17:47.095Z,21.92
2019-05-26T15:20:16.078Z,21.89
2019-05-26T15:22:44.681Z,21.95
2019-05-26T15:25:13.253Z,21.83
2019-05-26T15:27:41.755Z,21.82
2019-05-26T15:30:11.798Z,21.82
2019-05-26T15:32:40.479Z,21.83
2019-05-26T15:35:10.309Z,21.80
2019-05-26T15:37:38.873Z,21.80
2019-05-26T15:40:09.075Z,21.84
2019-05-26T15:42:37.725Z,21.91
2019-05-26T15:45:07.882Z,21.94
2019-05-26T15:47:36.668Z,22.02
2019-05-26T15:50:06.457Z,21.92
2019-05-26T15:52:34.881Z,21.94
2019-05-26T15:55:03.712Z,21.97
2019-05-26T15:57:32.161Z,21.96
2019-05-26T16:00:00.653Z,22.07
2019-05-26T16:02:29.190Z,22.04
2019-05-26T16:04:59.071Z,22.07
2019-05-26T16:07:27.674Z,22.09
2019-05-26T16:09:56.110Z,21.96
2019-05-26T16:12:24.755Z,21.96
2019-05-26T16:14:53.168Z,22.03
2019-05-26T16:17:21.751Z,22.01
2019-05-26T16:19:50.151Z,21.93
2019-05-26T16:22:18.779Z,21.88
2019-05-26T16:24:47.496Z,21.93
2019-05-26T16:27:19.455Z,22.01
2019-05-26T16:29:46.826Z,22.12
2019-05-26T16:32:18.759Z,22.17
2019-05-26T16:34:45.867Z,22.17
2019-05-26T16:37:14.397Z,22.28
2019-05-26T16:39:42.831Z,22.36
2019-05-26T16:42:11.528Z,22.35
2019-05-26T16:44:39.944Z,22.21
2019-05-26T16:47:08.647Z,22.22
2019-05-26T16:49:39.041Z,22.12
2019-05-26T16:52:07.647Z,22.07
2019-05-26T16:54:36.377Z,21.95
2019-05-26T16:57:05.152Z,22.09
2019-05-26T16:59:33.616Z,22.22
2019-05-26T17:02:02.018Z,22.20
2019-05-26T17:04:30.734Z,22.20
2019-05-26T17:06:59.311Z,22.17
2019-05-26T17:09:27.709Z,22.17
2019-05-26T17:11:56.369Z,22.13
2019-05-26T17:14:24.950Z,22.10
2019-05-26T17:16:53.565Z,21.98
2019-05-26T17:19:21.979Z,22.00
2019-05-26T17:21:50.633Z,22.02
2019-05-26T17:24:19.042Z,21.95
2019-05-26T17:26:47.890Z,21.92
2019-05-26T17:29:16.359Z,21.98
2019-05-26T17:31:44.793Z,21.95
2019-05-26T17:34:13.323Z,21.76
2019-05-26T17:36:41.924Z,21.62
2019-05-26T17:39:10.357Z,21.62
2019-05-26T17:41:38.883Z,21.62
2019-05-26T17:44:07.376Z,21.66
2019-05-26T17:46:35.957Z,21.57
2019-05-26T17:49:04.464Z,21.57
2019-05-26T17:51:33.288Z,21.52
2019-05-26T17:54:01.755Z,21.47
2019-05-26T17:56:30.151Z,21.45
2019-05-26T17:58:58.582Z,21.40
2019-05-26T18:01:26.987Z,21.36
2019-05-26T18:03:55.442Z,21.34
2019-05-26T18:06:23.930Z,21.29
2019-05-26T18:08:52.355Z,21.26
2019-05-26T18:11:20.866Z,21.30
2019-05-26T18:13:49.417Z,21.24
2019-05-26T18:16:17.948Z,21.24
2019-05-26T18:18:46.410Z,21.19
2019-05-26T18:21:14.945Z,21.15
2019-05-26T18:23:43.432Z,21.11
2019-05-26T18:26:11.909Z,21.07
2019-05-26T18:28:40.410Z,21.05
2019-05-26T18:31:08.842Z,21.06
2019-05-26T18:33:37.297Z,21.02
2019-05-26T18:36:05.795Z,21.03
2019-05-26T18:38:34.338Z,21.00
2019-05-26T18:41:02.858Z,20.72
2019-05-26T18:43:31.287Z,20.72
2019-05-26T18:45:59.769Z,20.75
2019-05-26T18:48:28.316Z,20.71
2019-05-26T18:50:56.793Z,20.69
2019-05-26T18:53:25.286Z,20.63
2019-05-26T18:55:53.737Z,20.60
2019-05-26T18:58:22.171Z,20.57
2019-05-26T19:00:50.778Z,20.56
2019-05-26T19:03:19.238Z,20.51
2019-05-26T19:05:51.181Z,20.53
2019-05-26T19:08:19.610Z,20.44
2019-05-26T19:10:48.042Z,20.49
2019-05-26T19:13:16.530Z,20.43
2019-05-26T19:15:45.012Z,20.39
2019-05-26T19:18:19.798Z,20.37
2019-05-26T19:20:44.165Z,20.33
2019-05-26T19:23:12.563Z,20.36
2019-05-26T19:25:41.156Z,20.26
2019-05-26T19:28:09.656Z,20.18
2019-05-26T19:30:38.147Z,20.15
2019-05-26T19:33:06.675Z,20.27
2019-05-26T19:35:35.279Z,20.23
2019-05-26T19:38:03.819Z,20.09
2019-05-26T19:40:32.323Z,20.01
2019-05-26T19:43:00.730Z,20.00
2019-05-26T19:45:29.142Z,20.01
2019-05-26T19:47:57.632Z,20.03
2019-05-26T19:50:26.195Z,20.02
2019-05-26T19:52:54.679Z,19.89
2019-05-26T19:55:23.159Z,19.94
2019-05-26T19:57:51.624Z,19.94
2019-05-26T20:00:20.771Z,19.78
2019-05-26T20:02:49.176Z,19.89
2019-05-26T20:05:17.962Z,19.82
2019-05-26T20:07:46.603Z,19.74
2019-05-26T20:10:16.724Z,19.51
2019-05-26T20:12:45.130Z,19.39
2019-05-26T20:15:14.424Z,19.57
2019-05-26T20:17:42.981Z,19.80
2019-05-26T20:20:11.902Z,19.64
2019-05-26T20:22:40.344Z,19.45
2019-05-26T20:25:09.700Z,19.52
2019-05-26T20:27:38.298Z,19.54
2019-05-26T20:30:08.670Z,19.61
2019-05-26T20:32:37.134Z,19.52
2019-05-26T20:35:09.045Z,19.62
2019-05-26T20:37:37.617Z,19.66
2019-05-26T20:40:08.519Z,19.41
2019-05-26T20:42:37.346Z,19.26
2019-05-26T20:45:08.246Z,19.36
2019-05-26T20:47:36.713Z,19.47
2019-05-26T20:50:07.771Z,19.38
2019-05-26T20:52:36.719Z,19.45
2019-05-26T20:55:09.826Z,19.26
2019-05-26T20:57:38.399Z,19.29
2019-05-26T21:00:10.452Z,19.21
2019-05-26T21:02:39.523Z,19.20
2019-05-26T21:05:09.507Z,19.05
2019-05-26T21:07:37.931Z,19.17
2019-05-26T21:10:07.080Z,19.15
2019-05-26T21:12:35.474Z,19.10
2019-05-26T21:15:04.939Z,19.04
2019-05-26T21:17:33.577Z,19.05
2019-05-26T21:20:02.124Z,19.13
2019-05-26T21:22:30.547Z,19.01
2019-05-26T21:24:59.001Z,18.98
2019-05-26T21:27:27.458Z,18.67
2019-05-26T21:29:55.886Z,18.58
2019-05-26T21:32:24.387Z,18.68
2019-05-26T21:34:52.811Z,18.73
2019-05-26T21:37:21.213Z,18.58
2019-05-26T21:39:49.663Z,18.54
2019-05-26T21:42:18.057Z,18.55
2019-05-26T21:44:46.602Z,18.30
2019-05-26T21:47:15.101Z,18.57
2019-05-26T21:49:43.608Z,18.51
2019-05-26T21:52:12.109Z,18.25
2019-05-26T21:54:41.336Z,18.22
2019-05-26T21:57:09.942Z,18.41
2019-05-26T21:59:38.347Z,18.26
2019-05-26T22:02:07.088Z,18.52
2019-05-26T22:04:35.535Z,18.22
2019-05-26T22:07:04.236Z,18.18
2019-05-26T22:09:33.135Z,18.32
2019-05-26T22:12:01.731Z,18.50
2019-05-26T22:14:30.124Z,18.17
2019-05-26T22:16:58.703Z,18.25
2019-05-26T22:19:27.139Z,18.10
2019-05-26T22:21:55.662Z,18.07
2019-05-26T22:24:24.168Z,18.28
2019-05-26T22:26:52.704Z,18.35
2019-05-26T22:29:21.522Z,18.46
2019-05-26T22:31:49.903Z,18.41
2019-05-26T22:34:18.339Z,17.98
2019-05-26T22:36:46.732Z,18.18
2019-05-26T22:39:15.166Z,18.14
2019-05-26T22:41:43.682Z,18.14
2019-05-26T22:44:12.169Z,17.83
2019-05-26T22:46:40.676Z,17.96
2019-05-26T22:49:09.116Z,17.82
2019-05-26T22:51:37.729Z,17.92
2019-05-26T22:54:06.225Z,17.64
2019-05-26T22:56:34.740Z,17.58
2019-05-26T22:59:03.176Z,17.79
2019-05-26T23:01:31.746Z,17.78
2019-05-26T23:04:03.046Z,17.68
2019-05-26T23:06:30.339Z,17.53
2019-05-26T23:08:58.785Z,17.50
2019-05-26T23:11:27.276Z,17.50
2019-05-26T23:13:55.813Z,17.42
2019-05-26T23:16:24.231Z,17.27
2019-05-26T23:18:52.803Z,17.31
2019-05-26T23:21:21.231Z,17.20
2019-05-26T23:23:49.699Z,17.34
2019-05-26T23:26:19.907Z,17.39
2019-05-26T23:28:48.492Z,17.14
2019-05-26T23:31:16.939Z,17.35
2019-05-26T23:33:45.413Z,17.34
2019-05-26T23:36:13.910Z,17.29
2019-05-26T23:38:42.325Z,17.34
2019-05-26T23:41:10.756Z,17.34
2019-05-26T23:43:39.162Z,17.56
2019-05-26T23:46:07.706Z,17.41
2019-05-26T23:48:36.172Z,17.30
2019-05-26T23:51:04.580Z,17.26
2019-05-26T23:53:33.009Z,17.46
2019-05-26T23:56:01.432Z,17.24
2019-05-26T23:58:29.954Z,17.13
